Terminal Aerodrome Forecast
Issued by NWS Anchorage, AK

Home | Current Version | Previous Version | Text Only | Print | Product List | Glossary On
Versions: 1 2 3 4 5 6 7 8 9 10 11 12 13 14 15 16 17 18 19 20 21 22 23 24 25 26 27 28 29 30 31 32 33 34
849
FTAK31 PANC 051735
TAFANC
TAF
PANC 051735Z 0518/0624 VRB03KT P6SM BKN070 BKN150
     FM060000 04007KT P6SM SCT040 OVC060
      TEMPO 0606/0609 -RA
     FM061200 14004KT P6SM VCSH BKN070
     FM061800 VRB02KT P6SM SCT070
     FM062100 16010G20KT P6SM -SHRA SCT050 BKN070=

USA.gov is the U.S. government's official web portal to all federal, state and local government web resources and services.